Time;durP1;ratioP1;P1;durP2;ratioP2;P2;SDS_P1;SDS_P2;PMS_P1;PMS_P2;Temp;Humidity;BMP_temperature;BMP_pressure;BME280_temperature;BME280_humidity;BME280_pressure;Samples;Min_cycle;Max_cycle;Signal;HPM_P1;HPM_P2
2023/11/27 00:00:48;;;;;;;18.63;18.10;;;21.80;55.10;;;;;;5007434;28;20473;-67
2023/11/27 00:03:15;;;;;;;18.10;17.60;;;21.70;55.00;;;;;;4999067;28;20454;-67
2023/11/27 00:05:42;;;;;;;17.97;17.47;;;21.70;55.00;;;;;;5007113;28;20470;-67
2023/11/27 00:08:09;;;;;;;19.50;18.93;;;21.70;55.00;;;;;;5007415;28;20500;-67
2023/11/27 00:10:36;;;;;;;19.53;18.70;;;21.70;55.00;;;;;;5007354;28;20477;-67
2023/11/27 00:13:03;;;;;;;17.93;17.43;;;21.70;55.00;;;;;;5007159;28;20477;-67
2023/11/27 00:15:30;;;;;;;18.93;18.33;;;21.70;55.10;;;;;;5001975;28;20466;-67
2023/11/27 00:17:58;;;;;;;18.70;18.03;;;21.70;55.00;;;;;;5007157;28;20489;-67
2023/11/27 00:20:25;;;;;;;18.17;17.67;;;21.70;55.00;;;;;;5005765;28;20504;-67
2023/11/27 00:22:53;;;;;;;18.03;17.40;;;21.70;55.10;;;;;;5003662;28;20478;-67
2023/11/27 00:25:20;;;;;;;18.00;17.50;;;21.70;55.10;;;;;;5004366;28;20447;-67
2023/11/27 00:27:47;;;;;;;18.93;18.33;;;21.70;55.00;;;;;;5006806;28;20553;-68
2023/11/27 00:30:14;;;;;;;17.50;17.00;;;21.70;55.00;;;;;;5006342;28;20479;-67
2023/11/27 00:32:42;;;;;;;17.80;17.30;;;21.70;55.00;;;;;;5005946;28;20449;-68
2023/11/27 00:35:11;;;;;;;19.00;18.07;;;21.70;55.00;;;;;;5003935;28;20479;-67
2023/11/27 00:37:37;;;;;;;17.53;17.03;;;21.70;55.00;;;;;;4995242;28;20474;-68
2023/11/27 00:40:05;;;;;;;17.10;16.60;;;21.70;55.10;;;;;;5004924;28;20541;-67
2023/11/27 00:42:32;;;;;;;20.13;19.43;;;21.70;55.10;;;;;;5007262;28;20446;-67
2023/11/27 00:44:59;;;;;;;19.17;18.57;;;21.70;55.10;;;;;;5007008;28;20450;-67
2023/11/27 00:47:27;;;;;;;19.47;18.87;;;21.60;55.10;;;;;;5008122;28;20534;-66
2023/11/27 00:49:54;;;;;;;18.97;18.37;;;21.60;55.10;;;;;;5009512;28;20469;-68
2023/11/27 00:52:23;;;;;;;20.03;19.33;;;21.60;55.20;;;;;;5006379;28;20474;-67
2023/11/27 00:54:50;;;;;;;19.73;19.13;;;21.60;55.10;;;;;;5001320;28;20449;-67
2023/11/27 00:57:17;;;;;;;19.17;18.57;;;21.60;55.10;;;;;;5006033;28;20470;-67
2023/11/27 00:59:43;;;;;;;19.33;18.63;;;21.60;55.00;;;;;;5001770;28;20478;-67
2023/11/27 01:02:10;;;;;;;21.37;20.67;;;21.60;55.00;;;;;;5001472;28;20478;-67
2023/11/27 01:04:38;;;;;;;17.50;17.00;;;21.60;55.00;;;;;;5004196;28;20473;-67
2023/11/27 01:07:05;;;;;;;18.00;17.50;;;21.60;55.00;;;;;;5005863;28;20442;-67
2023/11/27 01:09:35;;;;;;;17.87;17.27;;;21.60;55.10;;;;;;5006721;28;20500;-67
2023/11/27 01:12:02;;;;;;;17.97;17.17;;;21.60;55.10;;;;;;5007737;28;20461;-67
2023/11/27 01:14:29;;;;;;;18.10;17.60;;;21.60;55.10;;;;;;5009289;28;20478;-67
2023/11/27 01:16:56;;;;;;;18.10;17.50;;;21.60;55.10;;;;;;5009599;28;20452;-67
2023/11/27 01:19:23;;;;;;;17.40;16.90;;;21.60;55.20;;;;;;5007769;28;20509;-67
2023/11/27 01:21:52;;;;;;;17.30;16.80;;;21.60;55.10;;;;;;5006857;28;20443;-67
2023/11/27 01:24:20;;;;;;;17.47;16.97;;;21.50;55.00;;;;;;5007825;28;20543;-67
2023/11/27 01:26:48;;;;;;;18.07;17.47;;;21.50;55.00;;;;;;5009888;28;20454;-67
2023/11/27 01:29:15;;;;;;;18.50;17.90;;;21.50;55.10;;;;;;5008820;28;20946;-67
2023/11/27 01:31:42;;;;;;;17.23;16.73;;;21.50;55.10;;;;;;5005596;28;20501;-67
2023/11/27 01:34:09;;;;;;;18.43;17.83;;;21.50;55.10;;;;;;5005168;28;20501;-67
2023/11/27 01:36:36;;;;;;;19.40;18.70;;;21.50;55.10;;;;;;5009692;28;20496;-67
2023/11/27 01:39:03;;;;;;;18.97;18.37;;;21.50;55.10;;;;;;5010401;28;20517;-67
2023/11/27 01:41:30;;;;;;;18.90;18.30;;;21.50;55.10;;;;;;5005327;28;20452;-67
2023/11/27 01:43:58;;;;;;;17.77;17.17;;;21.50;55.10;;;;;;5004143;28;20479;-67
2023/11/27 01:46:27;;;;;;;18.00;17.40;;;21.50;55.10;;;;;;5005939;28;20490;-66
2023/11/27 01:48:55;;;;;;;17.77;16.97;;;21.50;55.10;;;;;;5006958;28;20497;-67
2023/11/27 01:51:22;;;;;;;17.77;17.27;;;21.50;55.10;;;;;;5005099;28;20884;-67
2023/11/27 01:53:51;;;;;;;17.30;16.80;;;21.50;55.10;;;;;;5003095;28;20474;-67
2023/11/27 01:56:20;;;;;;;17.17;16.67;;;21.50;55.10;;;;;;5003250;28;20483;-67
2023/11/27 01:58:48;;;;;;;17.47;16.87;;;21.50;55.10;;;;;;5005559;28;20523;-66
2023/11/27 02:01:17;;;;;;;16.70;16.20;;;21.50;55.10;;;;;;5006175;28;20474;-67
2023/11/27 02:03:44;;;;;;;17.27;16.67;;;21.50;55.10;;;;;;5001051;28;20442;-67
2023/11/27 02:06:11;;;;;;;16.90;16.40;;;21.50;55.20;;;;;;5003180;28;20475;-66
2023/11/27 02:08:38;;;;;;;17.80;17.20;;;21.50;55.20;;;;;;5005587;28;20497;-67
2023/11/27 02:11:05;;;;;;;17.50;17.00;;;21.50;55.20;;;;;;5005484;28;20481;-67
2023/11/27 02:13:32;;;;;;;18.30;17.70;;;21.50;55.20;;;;;;5003434;28;20449;-67
2023/11/27 02:15:59;;;;;;;17.50;17.00;;;21.50;55.20;;;;;;5002440;28;20474;-67
2023/11/27 02:18:27;;;;;;;17.13;16.63;;;21.40;55.10;;;;;;5003080;28;20545;-67
2023/11/27 02:21:01;;;;;;;17.07;16.57;;;21.50;55.20;;;;;;5005694;28;20568;-67
2023/11/27 02:23:29;;;;;;;16.90;16.40;;;21.40;55.10;;;;;;4996904;28;20474;-67
2023/11/27 02:25:56;;;;;;;18.00;17.40;;;21.40;55.10;;;;;;5005470;28;20878;-67
2023/11/27 02:28:23;;;;;;;16.83;16.33;;;21.40;55.10;;;;;;5004291;28;20497;-67
2023/11/27 02:30:50;;;;;;;17.27;16.67;;;21.40;55.20;;;;;;5001918;28;20501;-67
2023/11/27 02:33:17;;;;;;;16.80;16.40;;;21.40;55.20;;;;;;5002042;28;20870;-67
2023/11/27 02:35:44;;;;;;;17.73;17.23;;;21.40;55.70;;;;;;5005374;28;20454;-67
2023/11/27 02:38:11;;;;;;;17.63;17.13;;;21.50;55.30;;;;;;5005235;28;20489;-66
2023/11/27 02:40:39;;;;;;;18.00;17.40;;;21.40;55.20;;;;;;5002207;28;20510;-67
2023/11/27 02:43:06;;;;;;;16.73;16.33;;;21.40;55.20;;;;;;5001490;28;20475;-67
2023/11/27 02:45:34;;;;;;;17.00;16.50;;;21.40;55.20;;;;;;5004063;28;20474;-67
2023/11/27 02:48:00;;;;;;;17.50;17.00;;;21.40;55.20;;;;;;5005239;28;20866;-67
2023/11/27 02:50:27;;;;;;;16.93;16.43;;;21.40;55.20;;;;;;5003600;28;20470;-67
2023/11/27 02:52:55;;;;;;;16.90;16.30;;;21.40;55.20;;;;;;5001379;28;20435;-67
2023/11/27 02:55:22;;;;;;;18.27;17.30;;;21.40;55.30;;;;;;5001849;28;20513;-67
2023/11/27 02:57:51;;;;;;;17.37;16.87;;;21.40;55.20;;;;;;5005077;28;20489;-67
2023/11/27 03:00:18;;;;;;;16.90;16.40;;;21.40;55.30;;;;;;5004653;28;20482;-67
2023/11/27 03:02:45;;;;;;;16.80;16.30;;;21.40;55.30;;;;;;5001481;28;20474;-67
2023/11/27 03:05:12;;;;;;;18.10;17.60;;;21.40;55.40;;;;;;5001237;28;20462;-67
2023/11/27 03:07:39;;;;;;;16.80;16.30;;;21.40;55.50;;;;;;5004251;28;20843;-67
2023/11/27 03:10:07;;;;;;;17.00;16.50;;;21.40;55.40;;;;;;5004769;28;20504;-67
2023/11/27 03:12:35;;;;;;;16.87;16.37;;;21.40;55.50;;;;;;5002466;28;20478;-67
2023/11/27 03:15:05;;;;;;;17.10;16.60;;;21.40;55.50;;;;;;5001300;28;20477;-67
2023/11/27 03:17:32;;;;;;;17.10;16.60;;;21.40;55.50;;;;;;4997491;28;20444;-67
2023/11/27 03:19:59;;;;;;;17.73;17.17;;;21.40;55.40;;;;;;4999005;28;20557;-67
2023/11/27 03:22:26;;;;;;;18.10;17.53;;;21.30;55.40;;;;;;4999004;28;20484;-67
2023/11/27 03:24:52;;;;;;;18.17;17.17;;;21.40;55.50;;;;;;5001196;28;20443;-67
2023/11/27 03:27:20;;;;;;;17.73;17.23;;;21.30;55.40;;;;;;5001514;28;20801;-67
2023/11/27 03:29:46;;;;;;;17.40;16.90;;;21.30;55.40;;;;;;5003423;28;20473;-67
2023/11/27 03:32:15;;;;;;;17.67;17.17;;;21.30;55.40;;;;;;5004307;28;20478;-67
2023/11/27 03:34:43;;;;;;;17.73;17.23;;;21.30;55.90;;;;;;5001087;28;20443;-67
2023/11/27 03:37:10;;;;;;;17.70;17.10;;;21.30;55.40;;;;;;5000770;28;20471;-67
2023/11/27 03:39:38;;;;;;;17.50;16.90;;;21.30;55.40;;;;;;5002948;28;20518;-67
2023/11/27 03:42:05;;;;;;;17.97;17.47;;;21.30;55.40;;;;;;5004167;28;20469;-66
2023/11/27 03:44:32;;;;;;;17.90;17.30;;;21.30;55.40;;;;;;5002274;28;20481;-67
2023/11/27 03:46:59;;;;;;;17.67;16.97;;;21.30;55.40;;;;;;5000621;28;20479;-67
2023/11/27 03:49:27;;;;;;;18.20;17.60;;;21.30;55.40;;;;;;5001293;28;20501;-67
2023/11/27 03:51:54;;;;;;;16.90;16.30;;;21.30;55.30;;;;;;5004088;28;20473;-67
2023/11/27 03:54:21;;;;;;;17.47;16.90;;;21.30;55.30;;;;;;5003693;28;20544;-67
2023/11/27 03:56:48;;;;;;;17.57;16.97;;;21.30;55.40;;;;;;5000607;28;20475;-67
2023/11/27 03:59:15;;;;;;;18.13;17.33;;;21.30;55.30;;;;;;4997529;28;20911;-66
2023/11/27 04:01:42;;;;;;;18.77;18.23;;;21.30;55.40;;;;;;5003372;28;20442;-67
2023/11/27 04:04:10;;;;;;;20.50;19.90;;;21.30;55.40;;;;;;5003846;28;20489;-67
2023/11/27 04:06:38;;;;;;;20.80;20.00;;;21.30;55.40;;;;;;5001690;28;20442;-67
2023/11/27 04:09:05;;;;;;;17.90;17.40;;;21.30;55.40;;;;;;4999394;28;20590;-67
2023/11/27 04:11:32;;;;;;;18.23;17.53;;;21.30;55.40;;;;;;4995959;28;20471;-67
2023/11/27 04:13:59;;;;;;;19.57;18.97;;;21.30;55.40;;;;;;5003907;28;20442;-67
2023/11/27 04:16:26;;;;;;;19.03;18.43;;;21.30;55.40;;;;;;5002761;28;20473;-67
2023/11/27 04:18:53;;;;;;;19.43;18.83;;;21.30;55.40;;;;;;5000220;28;20467;-67
2023/11/27 04:21:20;;;;;;;18.90;18.30;;;21.30;55.30;;;;;;4999939;28;21040;-67
2023/11/27 04:23:49;;;;;;;20.20;19.60;;;21.30;55.30;;;;;;4992505;28;20474;-67
2023/11/27 04:26:21;;;;;;;19.87;19.27;;;21.20;55.30;;;;;;5000375;28;20478;-67
2023/11/27 04:28:48;;;;;;;18.50;17.90;;;21.30;55.30;;;;;;4992516;28;20467;-67
2023/11/27 04:31:15;;;;;;;19.33;18.50;;;21.30;55.40;;;;;;5000377;28;20470;-67
2023/11/27 04:33:42;;;;;;;19.00;18.33;;;21.20;55.30;;;;;;4998878;28;20434;-67
2023/11/27 04:36:10;;;;;;;19.47;18.97;;;21.30;55.40;;;;;;5003617;28;20525;-67
2023/11/27 04:38:37;;;;;;;18.33;17.83;;;21.20;55.30;;;;;;5001164;28;21015;-67
2023/11/27 04:41:07;;;;;;;22.80;22.10;;;21.30;55.40;;;;;;5000877;28;20836;-67
2023/11/27 04:43:34;;;;;;;21.13;20.53;;;21.20;55.30;;;;;;5005968;28;20451;-67
2023/11/27 04:46:00;;;;;;;18.90;18.20;;;21.20;55.30;;;;;;5007442;28;20474;-67
2023/11/27 04:48:27;;;;;;;18.90;18.30;;;21.20;55.20;;;;;;5006160;28;20500;-67
2023/11/27 04:50:54;;;;;;;19.10;18.40;;;21.20;55.20;;;;;;5004071;28;20467;-67
2023/11/27 04:53:21;;;;;;;19.90;19.20;;;21.20;55.20;;;;;;5002663;28;21296;-67
2023/11/27 04:55:48;;;;;;;18.80;18.10;;;21.20;55.20;;;;;;4996228;28;20958;-67
2023/11/27 04:58:18;;;;;;;18.00;17.40;;;21.20;55.10;;;;;;5003799;28;20887;-67
2023/11/27 05:00:45;;;;;;;19.73;19.03;;;21.20;55.10;;;;;;5006896;28;20488;-67
2023/11/27 05:03:11;;;;;;;20.90;20.20;;;21.20;55.20;;;;;;5006179;28;20482;-67
2023/11/27 05:05:38;;;;;;;19.70;19.10;;;21.20;55.20;;;;;;5005855;28;20470;-67
2023/11/27 05:08:05;;;;;;;20.10;19.50;;;21.20;55.20;;;;;;5006847;28;20497;-67
2023/11/27 05:10:38;;;;;;;20.80;20.10;;;21.20;55.30;;;;;;4999538;28;20501;-67
2023/11/27 05:13:05;;;;;;;20.00;19.40;;;21.20;55.30;;;;;;4999471;28;20446;-67
2023/11/27 05:15:34;;;;;;;21.80;21.10;;;21.20;55.30;;;;;;5003120;28;20950;-67
2023/11/27 05:18:01;;;;;;;21.47;20.77;;;21.20;55.40;;;;;;5006779;28;20466;-67
2023/11/27 05:20:27;;;;;;;21.20;20.50;;;21.20;55.30;;;;;;4995387;28;20558;-67
2023/11/27 05:22:54;;;;;;;20.03;19.43;;;21.20;55.30;;;;;;5006673;28;20949;-67
2023/11/27 05:25:21;;;;;;;21.60;20.90;;;21.20;55.20;;;;;;5006784;28;20481;-68
2023/11/27 05:27:48;;;;;;;20.80;20.20;;;21.20;55.20;;;;;;4995476;28;20510;-68
2023/11/27 05:30:15;;;;;;;21.27;20.60;;;21.20;55.20;;;;;;5003477;28;20443;-68
2023/11/27 05:32:43;;;;;;;22.70;22.00;;;21.20;55.30;;;;;;5002958;28;20478;-68
2023/11/27 05:35:10;;;;;;;21.80;21.10;;;21.20;55.30;;;;;;5003136;28;20471;-68
2023/11/27 05:37:37;;;;;;;21.50;20.80;;;21.20;55.30;;;;;;5004878;28;20454;-68
2023/11/27 05:40:07;;;;;;;20.87;20.27;;;21.20;55.30;;;;;;5006469;28;20983;-68
2023/11/27 05:42:39;;;;;;;21.37;20.67;;;21.20;55.30;;;;;;5004826;28;20450;-68
2023/11/27 05:45:10;;;;;;;22.23;21.53;;;21.20;55.30;;;;;;5002706;28;20447;-68
2023/11/27 05:47:37;;;;;;;20.90;20.30;;;21.20;55.30;;;;;;5004488;28;20447;-68
2023/11/27 05:50:06;;;;;;;21.10;20.30;;;21.20;55.40;;;;;;5006623;28;20474;-68
2023/11/27 05:52:34;;;;;;;20.90;20.30;;;21.20;55.50;;;;;;4997052;28;20501;-68
2023/11/27 05:55:00;;;;;;;22.83;21.63;;;21.20;55.40;;;;;;5006263;28;20446;-68
2023/11/27 05:57:28;;;;;;;24.97;23.97;;;21.20;56.40;;;;;;5005383;28;20491;-67
2023/11/27 05:59:55;;;;;;;25.07;23.37;;;21.20;56.90;;;;;;5003150;28;20470;-67
2023/11/27 06:02:23;;;;;;;24.30;22.40;;;21.20;56.70;;;;;;5006766;28;20442;-68
2023/11/27 06:04:49;;;;;;;24.20;22.60;;;21.20;57.90;;;;;;4996694;28;20442;-66
2023/11/27 06:07:19;;;;;;;24.43;22.80;;;21.20;58.80;;;;;;5002307;28;20471;-67
2023/11/27 06:09:46;;;;;;;25.40;23.17;;;21.30;59.40;;;;;;5005707;28;20466;-67
2023/11/27 06:12:13;;;;;;;24.13;22.20;;;21.30;59.90;;;;;;5005860;28;20496;-67
2023/11/27 06:14:40;;;;;;;23.83;22.20;;;21.30;59.70;;;;;;4997936;28;20489;-67
2023/11/27 06:17:07;;;;;;;24.83;23.20;;;21.30;59.60;;;;;;5005788;28;20437;-67
2023/11/27 06:19:34;;;;;;;23.80;22.40;;;21.30;59.50;;;;;;5004187;28;20490;-67
2023/11/27 06:22:01;;;;;;;22.73;21.73;;;21.30;59.40;;;;;;5002147;28;20575;-67
2023/11/27 06:24:29;;;;;;;25.17;23.27;;;21.30;59.20;;;;;;5002580;28;20887;-67
2023/11/27 06:26:56;;;;;;;23.90;23.00;;;21.30;59.10;;;;;;5005492;28;20473;-67
2023/11/27 06:29:23;;;;;;;24.93;23.13;;;21.30;58.90;;;;;;5005498;28;20486;-67
2023/11/27 06:31:50;;;;;;;23.17;21.77;;;21.30;58.80;;;;;;4993973;28;20931;-67
2023/11/27 06:34:17;;;;;;;23.93;22.40;;;21.30;58.60;;;;;;5002169;28;20698;-67
2023/11/27 06:36:44;;;;;;;24.30;23.07;;;21.30;58.50;;;;;;5004475;28;20475;-67
2023/11/27 06:39:11;;;;;;;23.83;22.30;;;21.40;58.40;;;;;;5005196;28;20496;-67
2023/11/27 06:41:39;;;;;;;22.23;20.80;;;21.40;58.30;;;;;;5003421;28;21021;-67
2023/11/27 06:44:09;;;;;;;21.40;20.40;;;21.40;58.10;;;;;;5001896;28;20475;-67
2023/11/27 06:46:36;;;;;;;22.60;21.40;;;21.40;58.00;;;;;;5003067;28;20442;-67
2023/11/27 06:49:05;;;;;;;22.43;21.33;;;21.40;57.90;;;;;;5004878;28;20504;-67
2023/11/27 06:51:32;;;;;;;21.70;20.90;;;21.40;57.80;;;;;;5004792;28;20434;-68
2023/11/27 06:53:59;;;;;;;22.90;21.60;;;21.40;57.70;;;;;;5002105;28;20481;-67
2023/11/27 06:56:27;;;;;;;23.50;22.17;;;21.40;57.60;;;;;;5001971;28;20475;-67
2023/11/27 06:58:56;;;;;;;23.33;21.53;;;21.40;57.50;;;;;;4993917;28;20466;-68
2023/11/27 07:01:22;;;;;;;21.73;20.40;;;21.40;57.40;;;;;;5001718;28;20509;-68
2023/11/27 07:03:49;;;;;;;21.30;19.87;;;21.40;57.30;;;;;;5004642;28;20953;-67
2023/11/27 07:06:18;;;;;;;21.87;20.53;;;21.40;57.20;;;;;;5004949;28;20972;-67
2023/11/27 07:08:45;;;;;;;21.57;20.33;;;21.40;57.10;;;;;;5001977;28;20470;-67
2023/11/27 07:11:12;;;;;;;21.60;20.70;;;21.40;57.00;;;;;;5001274;28;20470;-67
2023/11/27 07:13:38;;;;;;;20.50;19.60;;;21.40;56.90;;;;;;5002845;28;20474;-67
2023/11/27 07:16:08;;;;;;;21.10;20.20;;;21.40;56.80;;;;;;5004537;28;20474;-67
2023/11/27 07:18:35;;;;;;;20.83;19.87;;;21.50;56.80;;;;;;5003255;28;20494;-67
2023/11/27 07:21:02;;;;;;;23.40;22.07;;;21.40;56.70;;;;;;5001128;28;20479;-67
2023/11/27 07:23:29;;;;;;;21.30;20.20;;;21.40;56.60;;;;;;5001320;28;20439;-67
2023/11/27 07:25:56;;;;;;;21.00;20.30;;;21.50;56.60;;;;;;5004419;28;20446;-67
2023/11/27 07:28:25;;;;;;;21.73;20.60;;;21.50;56.60;;;;;;5004221;28;20465;-67
2023/11/27 07:30:53;;;;;;;21.17;20.27;;;21.50;56.50;;;;;;4993194;28;20535;-67
2023/11/27 07:33:22;;;;;;;21.43;20.53;;;21.50;56.40;;;;;;5000880;28;20482;-67
2023/11/27 07:35:50;;;;;;;21.33;20.23;;;21.50;56.40;;;;;;5003675;28;20521;-67
2023/11/27 07:38:17;;;;;;;21.23;20.23;;;21.50;56.30;;;;;;5004117;28;20520;-66
2023/11/27 07:40:43;;;;;;;21.13;19.73;;;21.50;56.20;;;;;;5001974;28;20930;-67
2023/11/27 07:43:10;;;;;;;22.93;21.93;;;21.50;56.20;;;;;;5000699;28;20477;-66
2023/11/27 07:45:38;;;;;;;21.57;20.67;;;21.50;56.10;;;;;;5002075;28;20438;-67
2023/11/27 07:48:05;;;;;;;21.70;20.80;;;21.50;56.10;;;;;;5004220;28;20652;-67
2023/11/27 07:50:33;;;;;;;20.90;20.10;;;21.50;56.00;;;;;;5003469;28;20803;-67
2023/11/27 07:53:00;;;;;;;21.97;21.10;;;21.50;56.00;;;;;;5000626;28;20867;-67
2023/11/27 07:55:27;;;;;;;21.40;20.50;;;21.50;55.90;;;;;;5000702;28;20478;-67
2023/11/27 07:57:54;;;;;;;20.80;20.10;;;21.50;55.90;;;;;;4992730;28;20475;-67
2023/11/27 08:00:26;;;;;;;22.07;21.27;;;21.50;55.80;;;;;;5000691;28;20478;-67
2023/11/27 08:02:53;;;;;;;22.03;21.03;;;21.50;55.90;;;;;;5003595;28;20531;-67
2023/11/27 08:05:22;;;;;;;21.73;20.70;;;21.50;55.80;;;;;;5003700;28;20450;-67
2023/11/27 08:07:50;;;;;;;22.03;21.23;;;21.50;55.80;;;;;;5000909;28;20466;-67
2023/11/27 08:10:17;;;;;;;23.47;22.27;;;21.50;55.80;;;;;;5000444;28;20478;-68
2023/11/27 08:12:44;;;;;;;24.00;23.07;;;21.50;55.70;;;;;;5002752;28;20443;-68
2023/11/27 08:15:18;;;;;;;24.03;23.03;;;21.50;55.70;;;;;;5003858;28;20477;-67
2023/11/27 08:17:45;;;;;;;22.33;21.47;;;21.50;55.70;;;;;;5001794;28;20466;-68
2023/11/27 08:20:14;;;;;;;22.70;21.67;;;21.50;55.70;;;;;;5000555;28;20546;-68
2023/11/27 08:22:42;;;;;;;22.43;21.63;;;21.50;55.70;;;;;;5002159;28;20905;-67
2023/11/27 08:25:11;;;;;;;21.20;20.40;;;21.50;55.60;;;;;;5004166;28;20442;-67
2023/11/27 08:27:39;;;;;;;23.47;22.43;;;21.50;55.60;;;;;;5002637;28;20929;-67
2023/11/27 08:30:09;;;;;;;23.33;22.30;;;21.50;55.60;;;;;;5000691;28;20443;-67
2023/11/27 08:32:36;;;;;;;23.30;22.30;;;21.50;55.50;;;;;;5001445;28;20474;-68
2023/11/27 08:35:04;;;;;;;22.83;21.77;;;21.50;55.50;;;;;;5003884;28;21012;-67
2023/11/27 08:37:35;;;;;;;22.17;21.37;;;21.50;55.50;;;;;;5003549;28;20476;-67
2023/11/27 08:40:06;;;;;;;20.60;19.77;;;21.50;55.40;;;;;;5000392;28;20505;-67
2023/11/27 08:42:35;;;;;;;20.13;19.43;;;21.50;55.40;;;;;;5000354;28;20844;-67
2023/11/27 08:45:10;;;;;;;22.27;21.10;;;21.50;55.40;;;;;;5003666;28;20988;-67
2023/11/27 08:47:37;;;;;;;20.70;19.90;;;21.50;55.30;;;;;;5002284;28;20490;-68
2023/11/27 08:50:05;;;;;;;19.80;19.20;;;21.50;55.30;;;;;;5000316;28;20473;-68
2023/11/27 08:52:32;;;;;;;21.33;20.53;;;21.50;55.30;;;;;;5000413;28;20443;-68
2023/11/27 08:54:59;;;;;;;21.80;20.90;;;21.50;55.30;;;;;;5003553;28;20957;-68
2023/11/27 08:57:26;;;;;;;21.80;21.10;;;21.50;55.20;;;;;;5003409;28;20446;-68
2023/11/27 08:59:54;;;;;;;21.30;20.60;;;21.50;55.20;;;;;;5000488;28;20478;-68
2023/11/27 09:02:21;;;;;;;20.90;20.20;;;21.50;55.20;;;;;;4999873;28;20818;-68
2023/11/27 09:04:49;;;;;;;22.93;22.03;;;21.50;55.20;;;;;;5002408;28;20486;-68
2023/11/27 09:07:16;;;;;;;25.20;23.80;;;21.50;55.10;;;;;;5003517;28;20477;-68
2023/11/27 09:09:43;;;;;;;23.30;22.50;;;21.50;55.10;;;;;;5001992;28;20504;-68
2023/11/27 09:12:10;;;;;;;22.40;21.60;;;21.50;55.10;;;;;;5000358;28;20445;-68
2023/11/27 09:14:36;;;;;;;22.13;21.20;;;21.50;55.00;;;;;;5001067;28;20489;-68
2023/11/27 09:17:05;;;;;;;23.77;22.73;;;21.50;55.00;;;;;;5003542;28;20485;-68
2023/11/27 09:19:32;;;;;;;22.93;22.13;;;21.50;55.00;;;;;;5003213;28;20810;-68
2023/11/27 09:22:00;;;;;;;21.70;21.00;;;21.50;54.90;;;;;;5000504;28;20930;-68
2023/11/27 09:24:27;;;;;;;23.47;22.57;;;21.50;54.90;;;;;;5000379;28;20509;-68
2023/11/27 09:26:55;;;;;;;22.27;21.47;;;21.50;54.90;;;;;;5003078;28;20444;-68
2023/11/27 09:29:22;;;;;;;23.30;22.50;;;21.50;54.90;;;;;;5006223;28;20457;-68
2023/11/27 09:31:50;;;;;;;22.77;22.07;;;21.50;54.90;;;;;;5004423;28;20934;-68
2023/11/27 09:34:18;;;;;;;24.33;23.53;;;21.50;54.90;;;;;;5003480;28;20471;-68
2023/11/27 09:36:45;;;;;;;23.20;22.40;;;21.50;54.90;;;;;;5005085;28;20481;-68
2023/11/27 09:39:12;;;;;;;23.27;22.47;;;21.50;54.90;;;;;;5007007;28;20472;-68
2023/11/27 09:41:39;;;;;;;23.40;22.60;;;21.50;54.80;;;;;;5005553;28;20513;-68
2023/11/27 09:44:06;;;;;;;23.33;22.53;;;21.50;54.90;;;;;;5003292;28;20474;-68
2023/11/27 09:46:35;;;;;;;25.07;24.27;;;21.50;54.80;;;;;;5003199;28;20482;-68
2023/11/27 09:49:07;;;;;;;24.60;23.80;;;21.50;54.80;;;;;;5006446;28;20469;-68
2023/11/27 09:51:38;;;;;;;24.40;23.50;;;21.50;54.80;;;;;;5006198;28;20466;-68
2023/11/27 09:54:06;;;;;;;23.47;22.67;;;21.50;54.80;;;;;;5003199;28;20478;-68
2023/11/27 09:56:35;;;;;;;23.60;22.80;;;21.50;54.80;;;;;;5002790;28;20455;-68
2023/11/27 09:59:03;;;;;;;24.80;24.00;;;21.50;55.30;;;;;;5006330;28;20462;-68
2023/11/27 10:01:31;;;;;;;23.97;23.17;;;21.50;54.80;;;;;;5006104;28;20517;-68
2023/11/27 10:04:00;;;;;;;25.63;24.73;;;21.50;54.70;;;;;;5002641;28;20447;-68
2023/11/27 10:06:32;;;;;;;25.57;24.77;;;21.50;54.70;;;;;;5002798;28;20447;-68
2023/11/27 10:09:07;;;;;;;24.73;23.93;;;21.50;54.70;;;;;;4994652;28;20510;-68
2023/11/27 10:11:35;;;;;;;25.30;24.40;;;21.50;54.70;;;;;;5002739;28;20438;-68
2023/11/27 10:14:04;;;;;;;24.13;23.33;;;21.50;54.70;;;;;;5006239;28;20477;-68
2023/11/27 10:16:32;;;;;;;22.83;22.03;;;21.50;54.70;;;;;;5006007;28;20489;-68
2023/11/27 10:19:05;;;;;;;23.20;22.50;;;21.50;54.60;;;;;;4994624;28;20833;-68
2023/11/27 10:21:33;;;;;;;22.50;21.60;;;21.50;54.60;;;;;;5002385;28;20475;-68
2023/11/27 10:24:01;;;;;;;23.00;22.20;;;21.50;54.70;;;;;;4994546;28;20858;-68
2023/11/27 10:26:31;;;;;;;25.40;24.50;;;21.50;54.60;;;;;;5002444;28;20447;-68
2023/11/27 10:28:58;;;;;;;23.60;22.70;;;21.50;54.60;;;;;;5005500;28;20465;-68
2023/11/27 10:31:26;;;;;;;23.40;22.60;;;21.50;54.60;;;;;;5005881;28;20442;-68
2023/11/27 10:33:55;;;;;;;22.67;21.90;;;21.50;54.60;;;;;;5002940;28;20500;-68
2023/11/27 10:36:24;;;;;;;24.10;23.27;;;21.50;54.50;;;;;;5002433;28;20501;-68
2023/11/27 10:39:14;;;;;;;22.03;21.33;;;21.50;54.50;;;;;;5003945;28;20467;-68
2023/11/27 10:41:45;;;;;;;24.50;23.70;;;21.50;54.50;;;;;;5004420;28;20957;-68
2023/11/27 10:44:13;;;;;;;21.63;20.93;;;21.50;54.50;;;;;;5002420;28;20443;-68
2023/11/27 10:46:41;;;;;;;22.83;22.03;;;21.50;54.50;;;;;;5002854;28;20473;-68
2023/11/27 10:49:08;;;;;;;22.67;21.90;;;21.50;54.40;;;;;;5005466;28;20501;-68
2023/11/27 10:51:35;;;;;;;24.40;23.60;;;21.50;54.50;;;;;;5004833;28;20454;-68
2023/11/27 10:54:04;;;;;;;25.17;24.20;;;21.50;54.50;;;;;;5001845;28;20502;-68
2023/11/27 10:56:31;;;;;;;24.50;23.70;;;21.50;54.50;;;;;;5001900;28;20956;-68
2023/11/27 10:59:05;;;;;;;25.80;25.00;;;21.50;54.40;;;;;;5004879;28;20458;-68
2023/11/27 11:01:39;;;;;;;25.50;24.70;;;21.50;54.40;;;;;;5005412;28;21013;-68
2023/11/27 11:04:16;;;;;;;27.07;26.17;;;21.50;54.40;;;;;;4994987;28;20443;-68
2023/11/27 11:06:46;;;;;;;24.40;23.60;;;21.50;54.40;;;;;;5002885;28;20451;-68
2023/11/27 11:09:15;;;;;;;25.43;24.63;;;21.50;54.40;;;;;;5004961;28;20464;-68
2023/11/27 11:11:44;;;;;;;25.30;24.50;;;21.50;54.50;;;;;;5003896;28;20522;-68
2023/11/27 11:14:15;;;;;;;24.80;24.00;;;21.50;54.40;;;;;;5001490;28;20471;-68
2023/11/27 11:16:52;;;;;;;26.13;25.33;;;21.50;54.40;;;;;;5002393;28;20474;-68
2023/11/27 11:19:27;;;;;;;25.43;24.57;;;21.50;54.40;;;;;;5005214;28;20496;-68
2023/11/27 11:22:08;;;;;;;26.60;25.60;;;21.50;54.40;;;;;;5002320;28;20520;-68
2023/11/27 11:24:44;;;;;;;24.73;24.00;;;21.50;54.30;;;;;;5001364;28;20497;-68
2023/11/27 11:27:19;;;;;;;26.23;25.40;;;21.50;54.40;;;;;;4994480;28;20935;-68
2023/11/27 11:29:51;;;;;;;25.57;24.77;;;21.50;54.30;;;;;;5002382;28;20474;-68
2023/11/27 11:32:18;;;;;;;26.80;25.77;;;21.50;54.30;;;;;;5004492;28;20439;-68
2023/11/27 11:34:49;;;;;;;25.70;24.90;;;21.50;54.30;;;;;;5003384;28;20442;-68
2023/11/27 11:37:18;;;;;;;25.80;25.00;;;21.50;54.30;;;;;;5001104;28;20451;-68
2023/11/27 11:39:46;;;;;;;24.37;23.63;;;21.50;54.30;;;;;;5002022;28;20471;-68
2023/11/27 11:42:17;;;;;;;24.50;23.70;;;21.50;54.30;;;;;;5004312;28;20557;-68
2023/11/27 11:45:05;;;;;;;24.20;23.40;;;21.50;54.30;;;;;;5003304;28;20450;-68
2023/11/27 11:47:33;;;;;;;23.43;22.63;;;21.50;54.30;;;;;;5000709;28;20526;-68
2023/11/27 11:50:19;;;;;;;24.60;23.80;;;21.50;54.20;;;;;;5003668;28;20446;-68
2023/11/27 11:52:47;;;;;;;24.20;23.30;;;21.40;54.20;;;;;;5002739;28;20438;-68
2023/11/27 11:55:15;;;;;;;24.17;23.37;;;21.50;54.30;;;;;;5000535;28;20526;-68
2023/11/27 11:57:42;;;;;;;26.87;26.07;;;21.50;54.30;;;;;;5000899;28;20541;-68
2023/11/27 12:00:19;;;;;;;26.10;25.20;;;21.50;54.30;;;;;;5004193;28;20454;-68
2023/11/27 12:02:47;;;;;;;25.10;24.30;;;21.50;54.20;;;;;;5003127;28;20487;-68
2023/11/27 12:05:15;;;;;;;25.77;24.87;;;21.50;54.20;;;;;;5000955;28;20439;-68
2023/11/27 12:07:44;;;;;;;26.10;25.30;;;21.50;54.30;;;;;;5001303;28;20505;-68
2023/11/27 12:10:16;;;;;;;24.00;23.30;;;21.50;54.20;;;;;;5004335;28;20850;-68
2023/11/27 12:12:47;;;;;;;24.27;23.47;;;21.50;54.10;;;;;;5003217;28;20453;-68
2023/11/27 12:15:16;;;;;;;23.93;23.23;;;21.50;54.10;;;;;;5000501;28;20443;-68
2023/11/27 12:17:48;;;;;;;26.13;25.33;;;21.50;54.10;;;;;;5000976;28;20562;-68
2023/11/27 12:20:21;;;;;;;23.87;23.10;;;21.50;54.10;;;;;;5004067;28;20818;-68
2023/11/27 12:22:48;;;;;;;24.27;23.57;;;21.50;54.10;;;;;;5002383;28;20482;-68
2023/11/27 12:25:18;;;;;;;22.80;22.10;;;21.50;54.10;;;;;;5000334;28;20470;-69
2023/11/27 12:27:45;;;;;;;22.33;21.70;;;21.50;54.20;;;;;;5000826;28;20478;-68
2023/11/27 12:30:20;;;;;;;25.87;25.13;;;21.50;54.10;;;;;;5003641;28;20817;-68
2023/11/27 12:32:50;;;;;;;23.03;22.33;;;21.50;54.10;;;;;;5002711;28;20445;-68